Time;durP1;ratioP1;P1;durP2;ratioP2;P2;SDS_P1;SDS_P2;PMS_P1;PMS_P2;Temp;Humidity;BMP_temperature;BMP_pressure;BME280_temperature;BME280_humidity;BME280_pressure;Samples;Min_cycle;Max_cycle;Signal;HPM_P1;HPM_P2
2022/03/31 00:00:19;;;;;;;6.80;1.40;;;3.50;99.90;;;;;;4943486;28;74600;-74
2022/03/31 00:02:45;;;;;;;10.65;1.75;;;3.60;99.90;;;;;;4996045;28;20050;-74
2022/03/31 00:05:12;;;;;;;9.18;1.60;;;3.50;99.90;;;;;;4919492;28;194817;-74
2022/03/31 00:07:51;;;;;;;8.50;1.65;;;3.60;99.90;;;;;;4960752;28;20046;-74
2022/03/31 00:10:24;;;;;;;8.32;1.67;;;3.60;99.90;;;;;;4937392;28;248295;-74
2022/03/31 00:12:52;;;;;;;8.98;1.80;;;3.70;99.90;;;;;;4947370;28;20050;-74
2022/03/31 00:15:18;;;;;;;7.43;1.80;;;3.70;99.90;;;;;;4943405;28;118417;-74
2022/03/31 00:17:45;;;;;;;8.15;1.52;;;3.60;99.90;;;;;;4973374;28;20042;-74
2022/03/31 00:20:12;;;;;;;8.40;1.80;;;3.70;99.90;;;;;;4944899;28;93285;-73
2022/03/31 00:22:39;;;;;;;9.00;1.65;;;3.60;99.90;;;;;;4966730;28;20089;-74
2022/03/31 00:25:07;;;;;;;7.72;1.48;;;3.70;99.90;;;;;;4943056;28;137315;-73
2022/03/31 00:27:38;;;;;;;7.80;1.17;;;3.70;99.90;;;;;;4949434;28;20055;-73
2022/03/31 00:30:07;;;;;;;6.82;1.35;;;3.60;99.90;;;;;;4948218;28;120100;-73
2022/03/31 00:32:34;;;;;;;9.35;1.60;;;3.60;99.90;;;;;;4955148;28;20059;-73
2022/03/31 00:35:00;;;;;;;7.18;1.25;;;3.60;99.90;;;;;;4952194;28;256723;-74
2022/03/31 00:37:27;;;;;;;5.75;1.30;;;3.60;99.90;;;;;;4948315;28;20409;-73
2022/03/31 00:39:54;;;;;;;10.45;1.70;;;3.60;99.90;;;;;;4955722;28;253093;-73
2022/03/31 00:42:21;;;;;;;7.50;1.40;;;3.60;99.90;;;;;;4932392;28;20528;-73
2022/03/31 00:44:49;;;;;;;5.55;1.05;;;3.60;99.90;;;;;;4955868;28;217663;-74
2022/03/31 00:47:15;;;;;;;6.15;1.63;;;3.60;99.90;;;;;;4946320;28;20053;-73
2022/03/31 00:49:41;;;;;;;7.28;1.20;;;3.50;99.90;;;;;;4962554;28;168234;-74
2022/03/31 00:52:08;;;;;;;6.13;1.13;;;3.50;99.90;;;;;;4947514;28;20042;-74
2022/03/31 00:54:36;;;;;;;7.35;1.10;;;3.50;99.90;;;;;;4972595;28;77194;-74
2022/03/31 00:57:04;;;;;;;8.70;1.50;;;3.50;99.90;;;;;;4944532;28;20057;-74
2022/03/31 00:59:30;;;;;;;6.15;1.40;;;3.40;99.90;;;;;;4978164;28;54748;-74
2022/03/31 01:01:58;;;;;;;7.15;1.35;;;3.40;99.90;;;;;;4949729;28;20061;-74
2022/03/31 01:04:26;;;;;;;7.30;1.35;;;3.40;99.90;;;;;;4935437;28;197986;-74
2022/03/31 01:06:52;;;;;;;8.70;1.40;;;3.40;99.90;;;;;;4956022;28;20558;-74
2022/03/31 01:09:19;;;;;;;7.18;1.42;;;3.40;99.90;;;;;;4974225;28;43982;-74
2022/03/31 01:11:45;;;;;;;9.27;1.70;;;3.40;99.90;;;;;;4950363;28;20046;-74
2022/03/31 01:14:11;;;;;;;13.65;1.75;;;3.50;99.90;;;;;;4953375;28;216636;-74
2022/03/31 01:16:38;;;;;;;7.82;1.25;;;3.40;99.90;;;;;;4938441;28;20463;-74
2022/03/31 01:19:05;;;;;;;9.32;1.55;;;3.40;99.90;;;;;;4961105;28;259050;-74
2022/03/31 01:21:39;;;;;;;7.95;1.13;;;3.40;99.90;;;;;;4954771;28;20038;-74
2022/03/31 01:24:09;;;;;;;6.93;1.30;;;3.40;99.90;;;;;;4965406;28;250516;-74
2022/03/31 01:26:37;;;;;;;10.00;1.30;;;3.40;99.90;;;;;;4944418;28;20038;-74
2022/03/31 01:29:05;;;;;;;7.55;1.27;;;3.30;99.90;;;;;;4962995;28;269523;-74
2022/03/31 01:31:32;;;;;;;8.60;1.50;;;3.30;99.90;;;;;;4949842;28;20496;-74
2022/03/31 01:33:58;;;;;;;10.60;1.40;;;3.30;99.90;;;;;;4948056;28;262623;-74
2022/03/31 01:36:26;;;;;;;7.00;1.20;;;3.30;99.90;;;;;;4942537;28;20380;-74
2022/03/31 01:38:53;;;;;;;9.45;1.40;;;3.30;99.90;;;;;;4989916;28;257585;-74
2022/03/31 01:41:19;;;;;;;8.20;1.55;;;3.30;99.90;;;;;;4956173;28;20042;-74
2022/03/31 01:43:46;;;;;;;10.20;1.83;;;3.30;99.90;;;;;;4984524;28;20065;-74
2022/03/31 01:46:13;;;;;;;11.35;1.65;;;3.40;99.90;;;;;;4952176;28;158331;-75
2022/03/31 01:48:39;;;;;;;10.10;1.63;;;3.40;99.90;;;;;;4977222;28;20386;-75
2022/03/31 01:51:05;;;;;;;8.57;1.58;;;3.40;99.90;;;;;;4933546;28;237505;-75
2022/03/31 01:53:37;;;;;;;7.63;1.17;;;3.30;99.90;;;;;;4983375;28;20043;-75
2022/03/31 01:56:04;;;;;;;9.35;1.60;;;3.30;99.90;;;;;;4938516;28;23827;-75
2022/03/31 01:58:30;;;;;;;9.27;1.38;;;3.30;99.90;;;;;;4975791;28;20045;-75
2022/03/31 02:00:59;;;;;;;10.95;1.77;;;3.30;99.90;;;;;;4928748;28;193511;-75
2022/03/31 02:03:26;;;;;;;9.18;1.50;;;3.30;99.90;;;;;;4969463;28;20475;-75
2022/03/31 02:05:52;;;;;;;8.80;1.60;;;3.30;99.90;;;;;;4917959;28;172992;-76
2022/03/31 02:08:19;;;;;;;8.77;1.70;;;3.30;99.90;;;;;;4969863;28;20059;-75
2022/03/31 02:10:45;;;;;;;10.05;1.55;;;3.30;99.90;;;;;;4931941;28;209363;-75
2022/03/31 02:13:12;;;;;;;8.18;2.00;;;3.40;99.90;;;;;;4969234;28;20054;-75
2022/03/31 02:15:38;;;;;;;7.55;1.90;;;3.30;99.90;;;;;;4944645;28;247672;-75
2022/03/31 02:18:04;;;;;;;9.57;1.92;;;3.30;99.90;;;;;;4971698;28;20046;-76
2022/03/31 02:20:32;;;;;;;10.88;2.10;;;3.30;99.90;;;;;;4946123;28;87687;-75
2022/03/31 02:23:00;;;;;;;12.98;2.25;;;3.30;99.90;;;;;;4975482;28;20496;-75
2022/03/31 02:25:27;;;;;;;10.70;2.03;;;3.30;99.90;;;;;;4936666;28;257687;-75
2022/03/31 02:27:54;;;;;;;11.57;2.70;;;3.30;99.90;;;;;;4980083;28;20265;-73
2022/03/31 02:30:21;;;;;;;10.15;2.40;;;3.30;99.90;;;;;;4929917;28;82032;-73
2022/03/31 02:32:48;;;;;;;12.55;2.72;;;3.30;99.90;;;;;;4995489;28;20061;-74
2022/03/31 02:35:14;;;;;;;11.48;3.13;;;3.30;99.90;;;;;;4935944;28;175792;-74
2022/03/31 02:37:40;;;;;;;9.38;3.30;;;3.30;99.90;;;;;;4963765;28;20050;-74
2022/03/31 02:40:07;;;;;;;10.95;3.60;;;3.30;99.90;;;;;;4923854;28;111989;-74
2022/03/31 02:42:35;;;;;;;13.02;3.53;;;3.30;99.90;;;;;;4970718;28;20061;-75
2022/03/31 02:45:05;;;;;;;14.13;4.28;;;3.30;99.90;;;;;;4959450;28;35586;-74
2022/03/31 02:47:34;;;;;;;9.00;3.47;;;3.30;99.90;;;;;;4963190;28;20034;-75
2022/03/31 02:50:00;;;;;;;11.98;4.50;;;3.30;99.90;;;;;;4964700;28;260002;-74
2022/03/31 02:55:24;;;;;;;11.57;4.32;;;3.30;99.90;;;;;;4944827;28;20050;-74
2022/03/31 02:55:25;;;;;;;12.70;3.83;;;3.30;99.90;;;;;;4947729;28;237417;-75
2022/03/31 02:58:09;;;;;;;11.50;4.85;;;3.30;99.90;;;;;;4970389;28;20530;-75
2022/03/31 03:00:37;;;;;;;11.43;4.55;;;3.30;99.90;;;;;;4946396;28;45023;-73
2022/03/31 03:03:04;;;;;;;11.48;4.85;;;3.30;99.90;;;;;;4981613;28;20153;-74
2022/03/31 03:05:31;;;;;;;12.18;4.65;;;3.30;99.90;;;;;;4907416;28;161267;-74
2022/03/31 03:07:57;;;;;;;12.27;5.22;;;3.40;99.90;;;;;;4968050;28;20054;-74
2022/03/31 03:10:24;;;;;;;11.48;5.53;;;3.30;99.90;;;;;;4936999;28;220725;-74
2022/03/31 03:12:50;;;;;;;13.98;5.28;;;3.30;99.90;;;;;;4979553;28;20054;-74
2022/03/31 03:15:17;;;;;;;13.27;6.13;;;3.40;99.90;;;;;;4952438;28;109297;-74
2022/03/31 03:17:45;;;;;;;13.25;6.70;;;3.30;99.90;;;;;;4958810;28;20054;-73
2022/03/31 03:20:13;;;;;;;12.23;6.25;;;3.30;99.90;;;;;;4937690;28;273239;-74
2022/03/31 03:22:44;;;;;;;11.82;6.40;;;3.30;99.90;;;;;;4994565;28;20054;-74
2022/03/31 03:25:11;;;;;;;12.63;7.57;;;3.20;99.90;;;;;;4943320;28;39126;-74
2022/03/31 03:27:38;;;;;;;12.07;7.45;;;3.20;99.90;;;;;;4964954;28;20050;-75
2022/03/31 03:30:06;;;;;;;11.75;7.18;;;3.20;99.90;;;;;;4931041;28;221620;-74
2022/03/31 03:32:32;;;;;;;12.68;7.15;;;3.20;99.90;;;;;;4978723;28;20483;-74
2022/03/31 03:34:58;;;;;;;12.43;6.78;;;3.20;99.90;;;;;;4971951;28;88553;-73
2022/03/31 03:37:25;;;;;;;15.10;7.75;;;3.10;99.90;;;;;;4965952;28;20355;-74
2022/03/31 03:39:51;;;;;;;13.48;7.10;;;3.10;99.90;;;;;;4996858;28;127891;-74
2022/03/31 03:42:18;;;;;;;12.32;7.00;;;3.20;99.90;;;;;;4946160;28;20496;-74
2022/03/31 03:44:44;;;;;;;11.00;6.80;;;3.10;99.90;;;;;;4972117;28;20061;-73
2022/03/31 03:47:10;;;;;;;12.25;6.70;;;3.10;99.90;;;;;;4937889;28;20038;-73
2022/03/31 03:49:37;;;;;;;12.68;6.78;;;3.00;99.90;;;;;;4963851;28;53561;-73
2022/03/31 03:52:04;;;;;;;13.15;6.50;;;3.00;99.90;;;;;;4939752;28;20447;-73
2022/03/31 03:54:30;;;;;;;12.25;6.88;;;3.00;99.90;;;;;;4959914;28;97507;-73
2022/03/31 03:56:56;;;;;;;11.80;7.22;;;3.10;99.90;;;;;;4951836;28;20047;-74
2022/03/31 03:59:24;;;;;;;11.73;7.20;;;3.00;99.90;;;;;;4971875;28;70183;-74
2022/03/31 04:01:51;;;;;;;12.73;7.05;;;3.00;99.90;;;;;;4946414;28;20044;-74
2022/03/31 04:04:17;;;;;;;12.88;6.70;;;3.00;99.90;;;;;;4958300;28;223597;-74
2022/03/31 04:06:43;;;;;;;11.70;6.50;;;3.00;99.90;;;;;;4948827;28;20523;-74
2022/03/31 04:09:09;;;;;;;12.50;6.43;;;2.90;99.90;;;;;;4950062;28;256422;-73
2022/03/31 04:11:36;;;;;;;12.15;6.28;;;3.00;99.90;;;;;;4968930;28;20049;-73
2022/03/31 04:14:03;;;;;;;11.00;6.10;;;3.00;99.90;;;;;;4968189;28;267710;-74
2022/03/31 04:16:29;;;;;;;13.93;6.88;;;3.00;99.90;;;;;;4968000;28;20498;-74
2022/03/31 04:18:55;;;;;;;10.55;6.43;;;3.00;99.90;;;;;;4948188;28;260001;-74
2022/03/31 04:21:21;;;;;;;10.40;6.13;;;3.00;99.90;;;;;;4963552;28;20076;-74
2022/03/31 04:23:48;;;;;;;11.85;6.10;;;3.00;99.90;;;;;;4972921;28;251234;-74
2022/03/31 04:26:14;;;;;;;12.05;5.93;;;3.00;99.90;;;;;;4956884;28;20367;-74
2022/03/31 04:28:40;;;;;;;10.57;5.60;;;3.00;99.90;;;;;;4984932;28;20058;-74
2022/03/31 04:31:06;;;;;;;10.23;5.80;;;3.00;99.90;;;;;;4914403;28;118916;-74
2022/03/31 04:33:33;;;;;;;9.90;5.43;;;3.00;99.90;;;;;;4971207;28;20058;-74
2022/03/31 04:36:00;;;;;;;10.82;6.40;;;3.00;99.90;;;;;;4917732;28;277791;-74
2022/03/31 04:38:26;;;;;;;12.52;6.85;;;3.00;99.90;;;;;;4965482;28;20073;-74
2022/03/31 04:40:52;;;;;;;10.75;6.68;;;3.00;99.90;;;;;;4940866;28;134496;-74
2022/03/31 04:43:18;;;;;;;12.65;7.50;;;3.00;99.90;;;;;;4986213;28;20484;-74
2022/03/31 04:45:44;;;;;;;12.00;7.72;;;3.00;99.90;;;;;;4954063;28;160494;-75
2022/03/31 04:48:11;;;;;;;12.93;8.30;;;2.90;99.90;;;;;;4966978;28;20059;-75
2022/03/31 04:50:37;;;;;;;12.80;8.60;;;2.90;99.90;;;;;;4942404;28;266512;-74
2022/03/31 04:53:06;;;;;;;14.27;9.23;;;2.90;99.90;;;;;;4981446;28;20404;-75
2022/03/31 04:55:33;;;;;;;13.48;9.30;;;2.90;99.90;;;;;;4952281;28;71600;-74
2022/03/31 04:57:59;;;;;;;14.43;9.82;;;2.80;99.90;;;;;;4959163;28;20050;-74
2022/03/31 05:00:26;;;;;;;16.00;11.30;;;2.80;99.90;;;;;;4929333;28;20064;-74
2022/03/31 05:02:52;;;;;;;16.15;11.10;;;2.80;99.90;;;;;;4977168;28;20439;-74
2022/03/31 05:05:19;;;;;;;16.42;11.23;;;2.80;99.90;;;;;;4933523;28;254589;-74
2022/03/31 05:07:45;;;;;;;15.60;10.50;;;2.80;99.90;;;;;;4954972;28;20062;-73
2022/03/31 05:10:11;;;;;;;14.88;10.43;;;2.70;99.90;;;;;;4950759;28;55616;-74
2022/03/31 05:12:37;;;;;;;15.73;11.18;;;2.70;99.90;;;;;;4973163;28;20058;-74
2022/03/31 05:15:04;;;;;;;16.13;11.27;;;2.70;99.90;;;;;;4948667;28;188599;-74
2022/03/31 05:17:35;;;;;;;17.15;12.30;;;2.70;99.90;;;;;;4963839;28;20046;-74
2022/03/31 05:20:08;;;;;;;17.17;11.60;;;2.70;99.90;;;;;;4962360;28;25343;-73
2022/03/31 05:22:36;;;;;;;17.10;12.57;;;2.70;99.90;;;;;;4954062;28;20054;-73
2022/03/31 05:25:04;;;;;;;17.75;11.80;;;2.80;99.90;;;;;;4955472;28;56828;-73
2022/03/31 05:27:30;;;;;;;16.48;11.65;;;2.70;99.90;;;;;;4977677;28;20467;-73
2022/03/31 05:29:57;;;;;;;15.65;10.70;;;2.70;99.90;;;;;;4980934;28;262002;-74
2022/03/31 05:32:24;;;;;;;16.58;10.98;;;2.70;99.90;;;;;;4945200;28;20060;-74
2022/03/31 05:34:51;;;;;;;15.73;10.90;;;2.70;99.90;;;;;;4981601;28;102608;-73
2022/03/31 05:37:17;;;;;;;14.90;10.60;;;2.80;99.90;;;;;;4948475;28;20141;-73
2022/03/31 05:39:44;;;;;;;15.57;11.02;;;2.80;99.90;;;;;;4964899;28;244299;-74
2022/03/31 05:42:10;;;;;;;15.52;10.88;;;2.80;99.90;;;;;;4943476;28;21018;-73
2022/03/31 05:44:36;;;;;;;14.10;9.75;;;2.80;99.90;;;;;;4973347;28;192359;-73
2022/03/31 05:47:02;;;;;;;14.80;10.85;;;2.80;99.90;;;;;;4948356;28;20050;-74
2022/03/31 05:49:28;;;;;;;15.07;10.93;;;2.80;99.90;;;;;;5004597;28;125847;-73
2022/03/31 05:51:55;;;;;;;13.23;9.73;;;2.80;99.90;;;;;;4931353;28;20424;-73
2022/03/31 05:54:21;;;;;;;13.32;9.25;;;2.90;99.90;;;;;;4986379;28;106962;-73
2022/03/31 05:56:47;;;;;;;13.75;9.57;;;2.90;99.90;;;;;;4956669;28;20069;-72
2022/03/31 05:59:15;;;;;;;12.50;8.85;;;2.90;99.90;;;;;;4960501;28;174779;-73
2022/03/31 06:01:41;;;;;;;12.57;8.48;;;2.80;99.90;;;;;;4936479;28;20169;-73
2022/03/31 06:04:07;;;;;;;14.57;8.45;;;2.80;99.90;;;;;;4947008;28;272820;-73
2022/03/31 06:06:34;;;;;;;13.65;9.00;;;2.80;99.90;;;;;;4937703;28;20116;-73
2022/03/31 06:09:00;;;;;;;12.63;8.60;;;2.80;99.90;;;;;;4973364;28;268853;-72
2022/03/31 06:11:26;;;;;;;13.77;9.40;;;2.80;99.90;;;;;;4942481;28;20412;-71
2022/03/31 06:13:52;;;;;;;15.77;10.32;;;2.80;99.90;;;;;;4945632;28;263438;-72
2022/03/31 06:16:19;;;;;;;14.25;9.38;;;2.80;99.90;;;;;;4962788;28;20046;-72
2022/03/31 06:18:45;;;;;;;13.93;10.00;;;2.80;99.90;;;;;;4971254;28;20918;-72
2022/03/31 06:21:12;;;;;;;13.60;9.25;;;2.90;99.90;;;;;;4941670;28;20045;-72
2022/03/31 06:23:38;;;;;;;14.60;10.52;;;2.90;99.90;;;;;;4996079;28;20047;-71
2022/03/31 06:26:05;;;;;;;13.88;9.75;;;2.90;99.90;;;;;;4937199;28;269228;-72
2022/03/31 06:28:32;;;;;;;15.25;10.38;;;3.00;99.90;;;;;;4970388;28;20050;-72
2022/03/31 06:30:59;;;;;;;14.70;10.57;;;2.90;99.90;;;;;;4949561;28;274497;-73
2022/03/31 06:33:25;;;;;;;14.27;10.45;;;2.90;99.90;;;;;;4982683;28;20057;-73
2022/03/31 06:35:51;;;;;;;14.23;9.90;;;3.00;99.90;;;;;;4951807;28;257229;-73
2022/03/31 06:38:17;;;;;;;13.10;8.98;;;3.00;99.90;;;;;;4993599;28;20051;-73
2022/03/31 06:41:06;;;;;;;14.30;9.00;;;3.00;99.90;;;;;;4940925;28;259554;-74
2022/03/31 06:43:30;;;;;;;11.82;8.48;;;3.10;99.90;;;;;;4966460;28;20042;-73
2022/03/31 06:45:56;;;;;;;12.02;9.00;;;3.00;99.90;;;;;;4952781;28;249517;-72
2022/03/31 06:48:22;;;;;;;12.77;8.95;;;3.10;99.90;;;;;;4991883;28;20050;-72
2022/03/31 06:50:48;;;;;;;12.32;8.82;;;3.10;99.90;;;;;;4947963;28;133878;-72
2022/03/31 06:53:14;;;;;;;12.30;8.52;;;3.10;99.90;;;;;;4982244;28;20087;-72
2022/03/31 06:55:40;;;;;;;12.07;8.38;;;3.10;99.90;;;;;;4941417;28;189514;-72
2022/03/31 06:58:07;;;;;;;11.88;8.68;;;3.20;99.90;;;;;;4995664;28;20053;-72
2022/03/31 07:00:33;;;;;;;11.77;8.57;;;3.20;99.90;;;;;;4948080;28;259549;-73
2022/03/31 07:02:59;;;;;;;12.57;8.90;;;3.20;99.90;;;;;;4982260;28;20061;-72
2022/03/31 07:05:25;;;;;;;11.80;8.60;;;3.20;99.90;;;;;;4923273;28;126787;-72
2022/03/31 07:07:52;;;;;;;11.77;8.23;;;3.30;99.90;;;;;;4946580;28;20081;-72
2022/03/31 07:10:19;;;;;;;10.90;7.63;;;3.20;99.90;;;;;;4944279;28;267444;-72
2022/03/31 07:12:45;;;;;;;11.23;8.02;;;3.30;99.90;;;;;;4971672;28;20479;-73
2022/03/31 07:15:11;;;;;;;10.88;7.57;;;3.30;99.90;;;;;;4937049;28;250513;-73
2022/03/31 07:17:38;;;;;;;12.00;8.45;;;3.30;99.90;;;;;;4974969;28;20071;-73
2022/03/31 07:20:05;;;;;;;11.55;8.20;;;3.30;99.90;;;;;;4949781;28;63993;-72
2022/03/31 07:22:32;;;;;;;10.85;7.68;;;3.30;99.90;;;;;;4958778;28;20042;-73
2022/03/31 07:24:59;;;;;;;11.68;8.45;;;3.40;99.90;;;;;;4966920;28;216543;-73
2022/03/31 07:27:25;;;;;;;12.13;8.00;;;3.40;99.90;;;;;;4949360;28;20043;-73
2022/03/31 07:29:51;;;;;;;11.57;8.38;;;3.40;99.90;;;;;;4941571;28;228436;-73
2022/03/31 07:32:18;;;;;;;11.48;8.45;;;3.40;99.90;;;;;;4951694;28;20057;-73
2022/03/31 07:34:44;;;;;;;12.35;8.85;;;3.30;99.90;;;;;;4975945;28;154035;-73
2022/03/31 07:37:10;;;;;;;12.68;8.85;;;3.30;99.90;;;;;;4978827;28;20057;-73
2022/03/31 07:39:38;;;;;;;13.63;9.82;;;3.40;99.90;;;;;;4984179;28;112144;-71
2022/03/31 07:42:04;;;;;;;14.43;9.18;;;3.40;99.90;;;;;;4982245;28;20065;-73
2022/03/31 07:44:30;;;;;;;12.52;9.70;;;3.40;99.90;;;;;;4958921;28;71397;-72
2022/03/31 07:46:57;;;;;;;12.05;8.95;;;3.40;99.90;;;;;;4947255;28;20042;-72
2022/03/31 07:49:23;;;;;;;12.82;9.48;;;3.40;99.90;;;;;;4967262;28;211442;-72
2022/03/31 07:51:50;;;;;;;13.32;9.70;;;3.40;99.90;;;;;;4941092;28;20806;-72
2022/03/31 07:54:16;;;;;;;13.18;9.90;;;3.40;99.90;;;;;;4967148;28;122952;-72
2022/03/31 07:56:42;;;;;;;13.27;10.07;;;3.50;99.90;;;;;;4949257;28;20443;-72
2022/03/31 07:59:08;;;;;;;13.00;9.55;;;3.50;99.90;;;;;;4965547;28;253521;-72
2022/03/31 08:01:34;;;;;;;12.70;9.40;;;3.50;99.90;;;;;;4941794;28;20046;-72
2022/03/31 08:04:00;;;;;;;12.60;9.32;;;3.60;99.90;;;;;;4947339;28;253371;-72
2022/03/31 08:06:27;;;;;;;12.38;9.02;;;3.60;99.90;;;;;;4944168;28;20527;-72
2022/03/31 08:08:53;;;;;;;14.10;9.60;;;3.60;99.90;;;;;;4955912;28;261328;-72
2022/03/31 08:11:19;;;;;;;12.18;8.90;;;3.60;99.90;;;;;;4957373;28;20056;-72
2022/03/31 08:13:45;;;;;;;12.40;9.05;;;3.60;99.90;;;;;;4981387;28;20054;-73
2022/03/31 08:16:11;;;;;;;11.80;8.80;;;3.60;99.90;;;;;;4930145;28;155531;-73
2022/03/31 08:18:37;;;;;;;12.05;8.40;;;3.50;99.90;;;;;;4974028;28;20050;-73
2022/03/31 08:21:04;;;;;;;12.25;8.90;;;3.60;99.90;;;;;;4954907;28;267810;-73
2022/03/31 08:23:31;;;;;;;12.73;9.23;;;3.60;99.90;;;;;;4948532;28;20493;-73
2022/03/31 08:25:57;;;;;;;11.27;8.48;;;3.70;99.90;;;;;;4936286;28;163797;-73
2022/03/31 08:28:25;;;;;;;11.88;8.13;;;3.70;99.90;;;;;;4958636;28;20054;-72
2022/03/31 08:30:51;;;;;;;11.70;7.82;;;3.60;99.90;;;;;;4946290;28;264946;-72
2022/03/31 08:33:18;;;;;;;11.95;8.48;;;3.60;99.90;;;;;;4965348;28;20054;-72
2022/03/31 08:35:45;;;;;;;12.05;8.20;;;3.60;99.90;;;;;;4932154;28;235789;-72
2022/03/31 08:38:11;;;;;;;11.57;7.82;;;3.60;99.90;;;;;;4970500;28;20058;-72
2022/03/31 08:40:37;;;;;;;10.77;7.55;;;3.60;99.90;;;;;;4937169;28;36267;-72
2022/03/31 08:43:03;;;;;;;11.07;6.97;;;3.60;99.90;;;;;;4977340;28;20042;-72
2022/03/31 08:45:35;;;;;;;15.20;7.40;;;3.60;99.90;;;;;;4939709;28;24752;-72
2022/03/31 08:48:03;;;;;;;12.43;8.05;;;3.50;99.90;;;;;;4989039;28;20050;-72
2022/03/31 08:50:32;;;;;;;11.32;7.68;;;3.50;99.90;;;;;;4949203;28;258811;-72
2022/03/31 08:52:58;;;;;;;12.60;8.05;;;3.50;99.90;;;;;;4983176;28;20522;-72
2022/03/31 08:55:24;;;;;;;9.68;5.28;;;3.50;99.90;;;;;;4951466;28;273282;-72
2022/03/31 08:57:54;;;;;;;8.98;4.93;;;3.40;99.90;;;;;;4983404;28;20050;-71
2022/03/31 09:00:22;;;;;;;9.32;4.72;;;3.30;99.90;;;;;;4945428;28;76870;-72
2022/03/31 09:03:10;;;;;;;9.75;4.90;;;3.20;99.90;;;;;;4975343;28;20069;-72
2022/03/31 09:05:38;;;;;;;9.80;4.28;;;3.10;99.90;;;;;;4930656;28;207121;-72
2022/03/31 09:08:09;;;;;;;10.88;4.80;;;3.10;99.90;;;;;;4975034;28;20046;-72
2022/03/31 09:10:44;;;;;;;12.50;5.18;;;3.00;99.90;;;;;;4953228;28;161935;-71
2022/03/31 09:13:18;;;;;;;9.25;4.70;;;3.00;99.90;;;;;;4966243;28;20050;-71
2022/03/31 09:16:06;;;;;;;11.27;5.70;;;3.10;99.90;;;;;;4949757;28;263728;-70
2022/03/31 09:18:38;;;;;;;9.65;5.22;;;3.10;99.90;;;;;;4978828;28;20404;-72
2022/03/31 09:21:10;;;;;;;12.98;5.57;;;3.00;99.90;;;;;;4940093;28;93202;-71
2022/03/31 09:23:42;;;;;;;12.70;5.32;;;2.90;99.90;;;;;;4986589;28;20058;-72
2022/03/31 09:26:12;;;;;;;13.07;5.50;;;2.90;99.90;;;;;;4933512;28;226449;-72
2022/03/31 09:28:39;;;;;;;12.43;5.93;;;2.90;99.90;;;;;;4947463;28;20053;-71
2022/03/31 09:31:10;;;;;;;10.35;5.88;;;2.90;99.90;;;;;;4949082;28;45475;-73
2022/03/31 09:33:38;;;;;;;9.80;5.57;;;2.80;99.90;;;;;;4991234;28;20050;-71
2022/03/31 09:36:21;;;;;;;12.43;6.22;;;2.80;99.90;;;;;;4949453;28;259404;-74
2022/03/31 09:39:00;;;;;;;12.48;6.65;;;2.80;99.90;;;;;;4955260;28;20429;-72
2022/03/31 09:41:29;;;;;;;12.00;6.70;;;2.70;99.90;;;;;;4914739;28;20039;-72
2022/03/31 09:43:59;;;;;;;12.17;6.67;;;2.60;99.90;;;;;;4958643;28;273010;-72
2022/03/31 09:46:27;;;;;;;12.38;6.70;;;2.50;99.90;;;;;;4956049;28;20037;-72
2022/03/31 09:48:55;;;;;;;12.75;7.20;;;2.50;99.90;;;;;;4963680;28;260554;-72
2022/03/31 09:51:24;;;;;;;12.02;7.13;;;2.50;99.90;;;;;;4968505;28;20063;-72
2022/03/31 09:53:54;;;;;;;14.00;7.97;;;2.50;99.90;;;;;;4967566;28;252462;-73
2022/03/31 09:56:24;;;;;;;12.82;7.88;;;2.50;99.90;;;;;;4944222;28;20041;-72
2022/03/31 09:58:51;;;;;;;12.88;7.80;;;2.50;99.90;;;;;;4964275;28;269020;-72
2022/03/31 10:01:18;;;;;;;14.50;8.27;;;2.50;99.90;;;;;;4959451;28;20046;-73
2022/03/31 10:03:45;;;;;;;12.52;7.72;;;2.50;99.90;;;;;;4978762;28;20057;-72
2022/03/31 10:06:12;;;;;;;13.32;7.95;;;2.50;99.90;;;;;;4933263;28;172285;-72
2022/03/31 10:08:42;;;;;;;13.38;8.38;;;2.50;99.90;;;;;;4976479;28;20046;-72
2022/03/31 10:11:10;;;;;;;14.80;10.20;;;2.50;99.90;;;;;;4954359;28;271467;-72
2022/03/31 10:14:17;;;;;;;15.45;10.10;;;2.50;99.90;;;;;;4981484;28;20061;-72
2022/03/31 10:16:51;;;;;;;17.13;10.68;;;2.50;99.90;;;;;;4934580;28;20053;-71
2022/03/31 10:19:32;;;;;;;20.05;12.75;;;2.50;99.90;;;;;;4973377;28;276370;-72
2022/03/31 10:22:00;;;;;;;17.90;12.43;;;2.50;99.90;;;;;;4982824;28;20033;-71
2022/03/31 10:24:42;;;;;;;19.75;12.20;;;2.50;99.90;;;;;;4964118;28;268188;-70
2022/03/31 10:27:09;;;;;;;;;;;2.60;99.90;;;;;;4959552;28;20426;-71
2022/03/31 10:29:43;;;;;;;15.40;10.63;;;2.60;99.90;;;;;;4960262;28;259330;-71
2022/03/31 10:32:17;;;;;;;16.13;11.18;;;2.60;99.90;;;;;;4961347;28;20046;-71
2022/03/31 10:34:48;;;;;;;16.00;9.73;;;2.70;99.90;;;;;;4959936;28;276243;-69
2022/03/31 10:37:32;;;;;;;12.93;8.63;;;2.70;99.90;;;;;;4963479;28;20042;-70
2022/03/31 10:39:58;;;;;;;13.90;8.95;;;2.70;99.90;;;;;;4969542;28;126302;-71
2022/03/31 10:42:25;;;;;;;14.27;8.68;;;2.80;99.90;;;;;;4961001;28;20041;-71
2022/03/31 10:45:09;;;;;;;15.30;9.77;;;2.80;99.90;;;;;;4957723;28;46413;-71
2022/03/31 10:47:36;;;;;;;16.20;10.95;;;2.70;99.90;;;;;;4938278;28;20044;-71
2022/03/31 10:50:04;;;;;;;18.23;11.98;;;2.70;99.90;;;;;;4955567;28;111346;-72
2022/03/31 10:52:32;;;;;;;18.27;12.35;;;2.80;99.90;;;;;;4989509;28;20065;-71
2022/03/31 10:55:19;;;;;;;18.38;11.65;;;2.80;99.90;;;;;;4965531;28;197865;-71
2022/03/31 10:57:45;;;;;;;16.35;10.95;;;2.70;99.90;;;;;;4935833;28;20265;-72
2022/03/31 11:00:17;;;;;;;15.40;10.70;;;2.60;99.90;;;;;;4910789;28;251843;-71
2022/03/31 11:02:46;;;;;;;15.90;10.95;;;2.60;99.90;;;;;;4976101;28;20058;-72
2022/03/31 11:05:12;;;;;;;16.02;11.02;;;2.50;99.90;;;;;;4928213;28;108412;-72
2022/03/31 11:07:39;;;;;;;15.07;10.30;;;2.50;99.90;;;;;;4960502;28;20614;-72
2022/03/31 11:10:13;;;;;;;17.23;12.18;;;2.40;99.90;;;;;;4936375;28;20050;-71
2022/03/31 11:12:40;;;;;;;16.88;10.90;;;2.40;99.90;;;;;;4978308;28;20392;-72
2022/03/31 11:15:08;;;;;;;15.80;10.80;;;2.40;99.90;;;;;;4957472;28;112793;-71
2022/03/31 11:17:36;;;;;;;14.98;9.80;;;2.40;99.90;;;;;;4972190;28;20054;-71
2022/03/31 11:20:22;;;;;;;14.65;9.98;;;2.30;99.90;;;;;;4949243;28;139700;-72
2022/03/31 11:23:03;;;;;;;13.32;8.68;;;2.30;99.90;;;;;;4971238;28;20046;-72
2022/03/31 11:25:30;;;;;;;12.63;8.40;;;2.20;99.90;;;;;;4943071;28;61754;-72
2022/03/31 11:27:59;;;;;;;11.63;7.43;;;2.20;99.90;;;;;;4953680;28;20594;-72
2022/03/31 11:30:30;;;;;;;11.75;7.50;;;2.10;99.90;;;;;;4932392;28;155224;-72
2022/03/31 11:32:56;;;;;;;12.07;7.45;;;2.10;99.90;;;;;;4976414;28;20054;-72
2022/03/31 11:35:25;;;;;;;10.75;6.70;;;2.00;99.90;;;;;;4924781;28;165460;-72
2022/03/31 11:37:52;;;;;;;11.32;6.65;;;2.00;99.90;;;;;;4987835;28;20081;-72
2022/03/31 11:40:24;;;;;;;11.13;6.88;;;1.90;99.90;;;;;;4924292;28;256982;-71
2022/03/31 11:42:52;;;;;;;11.43;6.60;;;1.90;99.90;;;;;;4989375;28;20042;-72
2022/03/31 11:45:29;;;;;;;11.02;6.55;;;1.80;99.90;;;;;;4918252;28;258866;-71
2022/03/31 11:48:00;;;;;;;10.23;6.20;;;1.80;99.90;;;;;;4991711;28;20054;-70
2022/03/31 11:50:28;;;;;;;10.77;6.90;;;1.80;99.90;;;;;;4950382;28;255400;-71
2022/03/31 11:52:55;;;;;;;11.20;6.82;;;1.80;99.90;;;;;;4985809;28;20058;-70
2022/03/31 11:55:21;;;;;;;10.63;6.78;;;1.80;99.90;;;;;;4945996;28;113065;-71
2022/03/31 11:57:58;;;;;;;11.68;7.07;;;1.80;99.90;;;;;;4985462;28;20043;-71
2022/03/31 12:00:29;;;;;;;11.02;6.95;;;1.80;99.90;;;;;;4940383;28;117863;-71
2022/03/31 12:02:58;;;;;;;11.40;6.95;;;1.80;99.90;;;;;;4987206;28;20057;-71
2022/03/31 12:05:25;;;;;;;11.70;7.50;;;1.70;99.90;;;;;;4926568;28;271922;-70
2022/03/31 12:07:52;;;;;;;11.20;7.05;;;1.70;99.90;;;;;;4986644;28;20046;-70
2022/03/31 12:10:19;;;;;;;11.48;7.35;;;1.70;99.90;;;;;;4910885;28;249222;-70
2022/03/31 12:12:47;;;;;;;11.18;6.97;;;1.70;99.90;;;;;;4973462;28;20472;-70
2022/03/31 12:15:23;;;;;;;13.02;7.90;;;1.70;99.90;;;;;;4923637;28;255968;-70
2022/03/31 12:18:05;;;;;;;11.90;7.57;;;1.70;99.90;;;;;;4992250;28;20046;-70
2022/03/31 12:20:35;;;;;;;12.20;8.10;;;1.60;99.90;;;;;;4953111;28;271669;-69
2022/03/31 12:23:01;;;;;;;13.68;8.65;;;1.70;99.90;;;;;;4996931;28;20038;-70
2022/03/31 12:25:33;;;;;;;13.45;7.88;;;1.70;99.90;;;;;;4942175;28;142796;-70
2022/03/31 12:28:07;;;;;;;13.35;8.85;;;1.70;99.90;;;;;;4973275;28;20432;-69
2022/03/31 12:30:45;;;;;;;13.27;8.20;;;1.70;99.90;;;;;;4938399;28;124135;-69
2022/03/31 12:33:20;;;;;;;13.82;9.63;;;1.70;99.90;;;;;;4973322;28;20060;-70
2022/03/31 12:36:06;;;;;;;12.88;8.85;;;1.70;99.90;;;;;;4950115;28;254799;-70
2022/03/31 12:38:35;;;;;;;14.82;10.25;;;1.80;99.90;;;;;;4991957;28;20046;-70
2022/03/31 12:41:06;;;;;;;14.55;10.20;;;1.80;99.90;;;;;;4950329;28;253806;-69
2022/03/31 12:43:32;;;;;;;;;;;1.80;99.90;;;;;;4976978;28;20055;-70
2022/03/31 12:46:12;;;;;;;15.10;9.85;;;1.80;99.90;;;;;;4952078;28;225164;-70
2022/03/31 12:48:38;;;;;;;15.13;10.43;;;1.80;99.90;;;;;;4979794;28;20053;-70